GCR6582 ZUNZ-ZBTJ
Flight info
| Callsign | GCR6582 |
|---|---|
| Flight time | N/A |
| Altitude | 35100 |
| Route | GOMON W9 DCH/K0841S1130 W9 CZH B213 WFX W233 AGULU W81 APIMI W275 NSH G212 TEKIL W85 OMDEK DCT AVBOX |
| Aircraft | A320/M-SDE3FGHIRWY/LB1 |
Departure
| Time | 2026-04-27 16:49 |
|---|---|
| Airport | Nyingchi Mainling Airport (ZUNZ) |
Arrival
| Time | N/A |
|---|---|
| Airport | Tianjin Binhai International Airport (ZBTJ) |
| Time | Latitude | Longitude | Altitude | Speed | Heading |
|---|---|---|---|---|---|
| 2026-04-27 16:35 | 29.30786 | 94.33567 | 9670 ft | 0 kts | 324° |
| 2026-04-27 16:36 | 29.30778 | 94.33573 | 9669 ft | 2 kts | 324° |
| 2026-04-27 16:36 | 29.30764 | 94.33584 | 9667 ft | 2 kts | 311° |
| 2026-04-27 16:37 | 29.30756 | 94.33599 | 9667 ft | 2 kts | 281° |
| 2026-04-27 16:37 | 29.30754 | 94.33618 | 9669 ft | 2 kts | 230° |
| 2026-04-27 16:37 | 29.30756 | 94.33620 | 9668 ft | 0 kts | 230° |
| 2026-04-27 16:41 | 29.30755 | 94.33619 | 9668 ft | 2 kts | 232° |
| 2026-04-27 16:41 | 29.30733 | 94.33573 | 9673 ft | 12 kts | 240° |
| 2026-04-27 16:42 | 29.30681 | 94.33503 | 9674 ft | 10 kts | 194° |
| 2026-04-27 16:42 | 29.30633 | 94.33531 | 9674 ft | 7 kts | 145° |
| 2026-04-27 16:42 | 29.30594 | 94.33546 | 9676 ft | 8 kts | 199° |
| 2026-04-27 16:42 | 29.30533 | 94.33459 | 9677 ft | 20 kts | 233° |
| 2026-04-27 16:43 | 29.30453 | 94.33329 | 9675 ft | 20 kts | 235° |
| 2026-04-27 16:43 | 29.30372 | 94.33199 | 9675 ft | 20 kts | 235° |
| 2026-04-27 16:43 | 29.30285 | 94.33057 | 9671 ft | 23 kts | 234° |
| 2026-04-27 16:43 | 29.30189 | 94.32904 | 9665 ft | 24 kts | 234° |
| 2026-04-27 16:44 | 29.30097 | 94.32756 | 9660 ft | 22 kts | 234° |
| 2026-04-27 16:44 | 29.30008 | 94.32612 | 9662 ft | 22 kts | 234° |
| 2026-04-27 16:44 | 29.29916 | 94.32464 | 9656 ft | 20 kts | 234° |
| 2026-04-27 16:44 | 29.29842 | 94.32344 | 9654 ft | 18 kts | 234° |
| 2026-04-27 16:45 | 29.29775 | 94.32237 | 9650 ft | 15 kts | 234° |
| 2026-04-27 16:45 | 29.29709 | 94.32182 | 9649 ft | 12 kts | 159° |
| 2026-04-27 16:45 | 29.29645 | 94.32232 | 9646 ft | 11 kts | 145° |
| 2026-04-27 16:45 | 29.29615 | 94.32297 | 9644 ft | 10 kts | 63° |
| 2026-04-27 16:46 | 29.29625 | 94.32314 | 9644 ft | 0 kts | 55° |
| 2026-04-27 16:47 | 29.29627 | 94.32317 | 9646 ft | 3 kts | 55° |
| 2026-04-27 16:47 | 29.29740 | 94.32501 | 9651 ft | 64 kts | 55° |
| 2026-04-27 16:48 | 29.30135 | 94.33138 | 9666 ft | 130 kts | 54° |
| 2026-04-27 16:48 | 29.30765 | 94.34154 | 9695 ft | 179 kts | 56° |
| 2026-04-27 16:48 | 29.31499 | 94.35327 | 10239 ft | 183 kts | 55° |
| 2026-04-27 16:49 | 29.32985 | 94.37717 | 11544 ft | 189 kts | 55° |
| 2026-04-27 16:49 | 29.33794 | 94.39019 | 11899 ft | 209 kts | 55° |
| 2026-04-27 16:49 | 29.34771 | 94.40355 | 12046 ft | 229 kts | 46° |
| 2026-04-27 16:49 | 29.36024 | 94.41604 | 12189 ft | 249 kts | 36° |
| 2026-04-27 16:50 | 29.37487 | 94.42738 | 12437 ft | 266 kts | 34° |
| 2026-04-27 16:50 | 29.39049 | 94.43926 | 13006 ft | 271 kts | 33° |
| 2026-04-27 16:50 | 29.40680 | 94.45029 | 13564 ft | 274 kts | 22° |
| 2026-04-27 16:50 | 29.42541 | 94.45552 | 14006 ft | 279 kts | 3° |
| 2026-04-27 16:51 | 29.44479 | 94.45343 | 14506 ft | 283 kts | 343° |
| 2026-04-27 16:51 | 29.46305 | 94.44490 | 15052 ft | 286 kts | 336° |
| 2026-04-27 16:51 | 29.48211 | 94.43805 | 15610 ft | 289 kts | 349° |
| 2026-04-27 16:51 | 29.50227 | 94.43600 | 16169 ft | 293 kts | 1° |
| 2026-04-27 16:52 | 29.52229 | 94.43906 | 16732 ft | 296 kts | 13° |
| 2026-04-27 16:52 | 29.54265 | 94.44325 | 17283 ft | 299 kts | 0° |
| 2026-04-27 16:52 | 29.56322 | 94.44048 | 17825 ft | 299 kts | 341° |
| 2026-04-27 16:52 | 29.58185 | 94.43004 | 18366 ft | 299 kts | 321° |
| 2026-04-27 16:53 | 29.59640 | 94.41317 | 18829 ft | 298 kts | 303° |
| 2026-04-27 16:53 | 29.60914 | 94.39424 | 19303 ft | 301 kts | 310° |
| 2026-04-27 16:53 | 29.62449 | 94.37763 | 19785 ft | 306 kts | 320° |
| 2026-04-27 16:53 | 29.64230 | 94.36408 | 20256 ft | 310 kts | 330° |
| 2026-04-27 16:54 | 29.66181 | 94.35395 | 20709 ft | 313 kts | 334° |
| 2026-04-27 16:54 | 29.68107 | 94.34226 | 21174 ft | 314 kts | 324° |
| 2026-04-27 16:54 | 29.69864 | 94.32735 | 21627 ft | 316 kts | 320° |
| 2026-04-27 16:54 | 29.71738 | 94.31317 | 21865 ft | 329 kts | 331° |
| 2026-04-27 16:55 | 29.73879 | 94.30319 | 22256 ft | 336 kts | 343° |
| 2026-04-27 16:55 | 29.76192 | 94.29833 | 22706 ft | 342 kts | 355° |
| 2026-04-27 16:55 | 29.78586 | 94.29915 | 23149 ft | 347 kts | 7° |
| 2026-04-27 16:55 | 29.80936 | 94.30577 | 23586 ft | 351 kts | 20° |
| 2026-04-27 16:56 | 29.83146 | 94.31789 | 23953 ft | 354 kts | 32° |
| 2026-04-27 16:56 | 29.85100 | 94.33518 | 24336 ft | 356 kts | 45° |
| 2026-04-27 16:56 | 29.86688 | 94.35658 | 24721 ft | 357 kts | 57° |
| 2026-04-27 16:56 | 29.87870 | 94.38173 | 25111 ft | 358 kts | 69° |
| 2026-04-27 16:57 | 29.88573 | 94.40924 | 25486 ft | 359 kts | 80° |
| 2026-04-27 16:57 | 29.89048 | 94.43755 | 25864 ft | 361 kts | 80° |
| 2026-04-27 16:57 | 29.89530 | 94.46607 | 26252 ft | 363 kts | 79° |
| 2026-04-27 16:57 | 29.90016 | 94.49473 | 26631 ft | 366 kts | 79° |
| 2026-04-27 16:58 | 29.90504 | 94.52356 | 27005 ft | 368 kts | 79° |
| 2026-04-27 16:58 | 29.90998 | 94.55258 | 27376 ft | 370 kts | 79° |
| 2026-04-27 16:58 | 29.91487 | 94.58135 | 27736 ft | 372 kts | 79° |
| 2026-04-27 16:58 | 29.91985 | 94.61072 | 28120 ft | 374 kts | 79° |
| 2026-04-27 16:59 | 29.92483 | 94.64027 | 28481 ft | 376 kts | 79° |
| 2026-04-27 16:59 | 29.92985 | 94.66997 | 28843 ft | 379 kts | 79° |
| 2026-04-27 16:59 | 29.93491 | 94.69982 | 29211 ft | 381 kts | 79° |
| 2026-04-27 16:59 | 29.93996 | 94.72987 | 29575 ft | 383 kts | 79° |
| 2026-04-27 17:00 | 29.94838 | 94.78018 | 30155 ft | 386 kts | 78° |
| 2026-04-27 17:00 | 29.95520 | 94.82102 | 30557 ft | 389 kts | 78° |
| 2026-04-27 17:00 | 29.96027 | 94.85131 | 30840 ft | 391 kts | 78° |
| 2026-04-27 17:01 | 29.96717 | 94.88170 | 31150 ft | 392 kts | 66° |
| 2026-04-27 17:01 | 29.98025 | 94.90911 | 31452 ft | 391 kts | 51° |
| 2026-04-27 17:01 | 29.99874 | 94.93197 | 31737 ft | 390 kts | 36° |
| 2026-04-27 17:01 | 30.02137 | 94.94895 | 32006 ft | 388 kts | 22° |
| 2026-04-27 17:02 | 30.04671 | 94.95926 | 32265 ft | 388 kts | 13° |
| 2026-04-27 17:02 | 30.07214 | 94.97066 | 32398 ft | 399 kts | 30° |
| 2026-04-27 17:02 | 30.09323 | 94.99189 | 32512 ft | 410 kts | 52° |
| 2026-04-27 17:02 | 30.10702 | 95.02048 | 32647 ft | 419 kts | 65° |
| 2026-04-27 17:03 | 30.11687 | 95.05246 | 32777 ft | 426 kts | 73° |
| 2026-04-27 17:03 | 30.12391 | 95.08598 | 32908 ft | 433 kts | 77° |
| 2026-04-27 17:03 | 30.12943 | 95.12045 | 33035 ft | 439 kts | 79° |
| 2026-04-27 17:03 | 30.13459 | 95.15545 | 33165 ft | 445 kts | 79° |
| 2026-04-27 17:04 | 30.14013 | 95.19079 | 33293 ft | 450 kts | 78° |
| 2026-04-27 17:04 | 30.14636 | 95.22640 | 33423 ft | 455 kts | 76° |
| 2026-04-27 17:04 | 30.15323 | 95.26228 | 33558 ft | 460 kts | 76° |
| 2026-04-27 17:04 | 30.16044 | 95.29794 | 33683 ft | 464 kts | 75° |
| 2026-04-27 17:05 | 30.16797 | 95.33436 | 33819 ft | 468 kts | 75° |
| 2026-04-27 17:05 | 30.17551 | 95.37104 | 33959 ft | 471 kts | 75° |
| 2026-04-27 17:05 | 30.18294 | 95.40807 | 34081 ft | 474 kts | 76° |
| 2026-04-27 17:06 | 30.19750 | 95.48278 | 34453 ft | 477 kts | 76° |
| 2026-04-27 17:06 | 30.20474 | 95.52024 | 34684 ft | 477 kts | 76° |
| 2026-04-27 17:06 | 30.21197 | 95.55772 | 34901 ft | 478 kts | 76° |
| 2026-04-27 17:06 | 30.21910 | 95.59471 | 35096 ft | 478 kts | 76° |
| 2026-04-27 17:07 | 30.22640 | 95.63226 | 35170 ft | 481 kts | 76° |
| 2026-04-27 17:07 | 30.24114 | 95.70792 | 35173 ft | 483 kts | 76° |
| 2026-04-27 17:08 | 30.25583 | 95.78363 | 35181 ft | 483 kts | 76° |
| 2026-04-27 17:08 | 30.27033 | 95.85897 | 35180 ft | 483 kts | 76° |
| 2026-04-27 17:09 | 30.28488 | 95.93472 | 35177 ft | 483 kts | 76° |
| 2026-04-27 17:09 | 30.29939 | 96.01057 | 35176 ft | 483 kts | 76° |
| 2026-04-27 17:10 | 30.31421 | 96.08631 | 35172 ft | 482 kts | 75° |
| 2026-04-27 17:10 | 30.32954 | 96.16179 | 35165 ft | 482 kts | 75° |
| 2026-04-27 17:11 | 30.34480 | 96.23683 | 35158 ft | 482 kts | 75° |
| 2026-04-27 17:11 | 30.36731 | 96.35012 | 35151 ft | 481 kts | 76° |
| 2026-04-27 17:12 | 30.38960 | 96.46332 | 35141 ft | 480 kts | 76° |
| 2026-04-27 17:13 | 30.40442 | 96.53817 | 35135 ft | 480 kts | 76° |
| 2026-04-27 17:13 | 30.41928 | 96.61356 | 35127 ft | 480 kts | 76° |
| 2026-04-27 17:14 | 30.43404 | 96.68898 | 35125 ft | 480 kts | 76° |
| 2026-04-27 17:14 | 30.44872 | 96.76437 | 35129 ft | 480 kts | 76° |
| 2026-04-27 17:15 | 30.46331 | 96.83930 | 35121 ft | 480 kts | 76° |
| 2026-04-27 17:15 | 30.47799 | 96.91472 | 35120 ft | 480 kts | 76° |
| 2026-04-27 17:16 | 30.49257 | 96.99017 | 35123 ft | 479 kts | 76° |